Time;durP1;ratioP1;P1;durP2;ratioP2;P2;SDS_P1;SDS_P2;PMS_P1;PMS_P2;Temp;Humidity;BMP_temperature;BMP_pressure;BME280_temperature;BME280_humidity;BME280_pressure;Samples;Min_cycle;Max_cycle;Signal;HPM_P1;HPM_P2
2022/05/01 00:00:14;;;;;;;10.35;4.93;;;14.10;46.10;;;;;;4866280;29;20040;-89
2022/05/01 00:02:39;;;;;;;8.20;4.72;;;14.00;46.20;;;;;;4853210;29;20046;-89
2022/05/01 00:05:06;;;;;;;7.03;4.30;;;14.00;46.20;;;;;;4824184;29;20489;-88
2022/05/01 00:07:32;;;;;;;11.30;4.78;;;14.00;46.20;;;;;;4834933;29;20037;-88
2022/05/01 00:09:59;;;;;;;16.02;4.85;;;14.00;46.30;;;;;;4849215;29;20034;-89
2022/05/01 00:12:25;;;;;;;9.85;4.40;;;14.00;46.30;;;;;;4867843;29;20687;-87
2022/05/01 00:14:51;;;;;;;9.90;4.72;;;14.10;46.30;;;;;;4856666;29;20040;-89
2022/05/01 00:17:17;;;;;;;8.60;4.53;;;14.00;46.30;;;;;;4849333;29;21510;-88
2022/05/01 00:19:43;;;;;;;12.63;4.50;;;14.00;46.50;;;;;;4851185;29;20029;-89
2022/05/01 00:22:09;;;;;;;9.95;4.22;;;14.00;46.40;;;;;;4856557;29;20041;-89
2022/05/01 00:24:35;;;;;;;9.30;4.65;;;14.00;46.40;;;;;;4854807;29;20060;-88
2022/05/01 00:27:01;;;;;;;12.05;4.28;;;14.00;46.30;;;;;;4888162;29;20065;-86
2022/05/01 00:29:30;;;;;;;15.93;5.13;;;14.00;46.40;;;;;;4888662;29;20066;-87
2022/05/01 00:31:55;;;;;;;13.32;5.22;;;14.00;46.40;;;;;;4878602;29;20033;-87
2022/05/01 00:37:06;;;;;;;13.75;5.38;;;13.90;46.50;;;;;;4873711;29;20113;-88
2022/05/01 00:39:32;;;;;;;12.02;4.47;;;13.90;46.50;;;;;;4848945;29;20065;-87
2022/05/01 00:41:58;;;;;;;11.30;4.30;;;13.90;46.50;;;;;;4859155;29;20034;-90
2022/05/01 00:44:24;;;;;;;11.38;4.43;;;13.90;46.60;;;;;;4854794;29;20127;-86
2022/05/01 00:46:52;;;;;;;10.70;4.78;;;13.90;46.50;;;;;;4852063;29;20041;-89
2022/05/01 00:49:26;;;;;;;11.50;4.65;;;13.90;46.50;;;;;;4851784;29;20048;-88
2022/05/01 00:51:58;;;;;;;13.00;4.65;;;13.90;46.50;;;;;;4865994;29;20045;-86
2022/05/01 00:54:29;;;;;;;10.27;4.95;;;13.90;46.50;;;;;;4840584;29;20397;-88
2022/05/01 00:56:59;;;;;;;12.45;4.70;;;13.90;46.50;;;;;;4882785;29;20038;-87
2022/05/01 00:59:26;;;;;;;11.65;4.78;;;13.90;46.60;;;;;;4883037;29;20038;-88
2022/05/01 01:01:52;;;;;;;7.43;4.25;;;13.90;46.60;;;;;;4840580;29;20029;-88
2022/05/01 01:04:19;;;;;;;9.30;4.60;;;13.90;46.60;;;;;;4852926;29;20037;-88
2022/05/01 01:06:45;;;;;;;10.20;4.45;;;13.80;46.50;;;;;;4866707;29;20072;-88
2022/05/01 01:09:12;;;;;;;11.05;4.45;;;13.80;46.50;;;;;;4851972;29;20432;-87
2022/05/01 01:11:39;;;;;;;8.48;4.43;;;13.80;46.40;;;;;;4851492;29;20069;-87
2022/05/01 01:14:06;;;;;;;10.90;4.57;;;13.80;46.40;;;;;;4864512;29;20034;-87
2022/05/01 01:16:34;;;;;;;11.07;4.53;;;13.80;46.40;;;;;;4883236;29;20037;-87
2022/05/01 01:19:10;;;;;;;10.18;4.57;;;13.80;46.50;;;;;;4857135;29;20025;-86
2022/05/01 01:21:39;;;;;;;8.88;4.57;;;13.80;46.60;;;;;;4882929;29;20041;-91
2022/05/01 01:24:10;;;;;;;10.35;4.80;;;13.80;46.60;;;;;;4870266;29;20080;-93
2022/05/01 01:26:58;;;;;;;8.63;4.57;;;13.80;46.60;;;;;;4884109;29;20051;-93
2022/05/01 01:32:13;;;;;;;14.25;5.25;;;13.80;46.70;;;;;;4865053;29;20041;-87
2022/05/01 01:34:42;;;;;;;9.07;4.35;;;13.70;46.80;;;;;;4892503;29;20041;-87
2022/05/01 01:37:08;;;;;;;9.85;4.75;;;13.70;46.70;;;;;;4893618;29;20025;-87
2022/05/01 01:39:34;;;;;;;13.95;4.40;;;13.80;46.70;;;;;;4879146;29;20037;-88
2022/05/01 01:42:04;;;;;;;7.85;4.22;;;13.70;46.70;;;;;;4883729;29;20130;-87
2022/05/01 01:44:31;;;;;;;10.27;4.75;;;13.80;46.80;;;;;;4862252;29;20052;-89
2022/05/01 01:46:57;;;;;;;10.95;4.90;;;13.80;46.70;;;;;;4851498;29;20045;-88
2022/05/01 01:49:23;;;;;;;9.45;4.35;;;13.80;46.70;;;;;;4873166;29;20048;-87
2022/05/01 01:51:48;;;;;;;9.05;4.70;;;13.80;46.70;;;;;;4842977;29;20456;-88
2022/05/01 01:54:14;;;;;;;9.75;4.82;;;13.80;46.70;;;;;;4857847;29;20037;-87
2022/05/01 01:56:43;;;;;;;10.70;4.45;;;13.70;46.70;;;;;;4857661;29;20048;-86
2022/05/01 01:59:09;;;;;;;9.48;4.63;;;13.70;46.70;;;;;;4886004;29;20406;-88
2022/05/01 02:01:35;;;;;;;11.43;4.82;;;13.70;46.80;;;;;;4844052;29;20033;-86
2022/05/01 02:04:01;;;;;;;7.57;4.15;;;13.80;46.80;;;;;;4858124;29;20034;-90
2022/05/01 02:06:27;;;;;;;11.63;4.82;;;13.80;46.70;;;;;;4858444;29;20504;-91
2022/05/01 02:08:52;;;;;;;8.77;5.10;;;13.70;46.70;;;;;;4858504;29;20034;-91
2022/05/01 02:11:20;;;;;;;10.95;4.60;;;13.80;46.80;;;;;;4869102;29;20041;-91
2022/05/01 02:13:46;;;;;;;12.85;4.45;;;13.80;46.70;;;;;;4857998;29;20033;-91
2022/05/01 02:16:12;;;;;;;10.48;4.32;;;13.80;46.50;;;;;;4857839;29;20039;-90
2022/05/01 02:18:38;;;;;;;11.23;4.90;;;13.80;46.50;;;;;;4854110;29;20033;-88
2022/05/01 02:23:49;;;;;;;9.23;4.43;;;13.80;46.50;;;;;;4869878;29;20041;-91
2022/05/01 02:26:14;;;;;;;11.25;4.80;;;13.80;46.50;;;;;;4857467;29;20037;-87
2022/05/01 02:28:40;;;;;;;11.57;4.68;;;13.80;46.50;;;;;;4868787;29;20502;-88
2022/05/01 02:31:07;;;;;;;11.52;4.95;;;13.80;46.60;;;;;;4865573;29;20124;-88
2022/05/01 02:33:32;;;;;;;8.43;4.40;;;13.80;46.60;;;;;;4858062;29;20155;-87
2022/05/01 02:35:59;;;;;;;10.73;4.90;;;13.80;46.60;;;;;;4854104;29;20041;-88
2022/05/01 02:38:25;;;;;;;9.32;4.68;;;13.80;46.50;;;;;;4858561;29;20024;-84
2022/05/01 02:40:51;;;;;;;10.27;4.50;;;13.80;46.60;;;;;;4880460;29;20059;-83
2022/05/01 02:43:16;;;;;;;12.18;4.97;;;13.80;46.60;;;;;;4892897;29;20105;-84
2022/05/01 02:45:42;;;;;;;10.88;4.97;;;13.90;46.50;;;;;;4902898;29;20101;-85
2022/05/01 02:48:08;;;;;;;9.15;5.30;;;13.90;46.50;;;;;;4844785;29;20065;-86
2022/05/01 02:50:34;;;;;;;13.05;5.20;;;13.90;46.50;;;;;;4869971;29;20083;-86
2022/05/01 02:53:04;;;;;;;11.15;5.10;;;13.90;46.50;;;;;;4870653;29;20041;-86
2022/05/01 02:55:30;;;;;;;10.73;5.13;;;13.90;46.50;;;;;;4886531;29;20045;-86
2022/05/01 02:57:56;;;;;;;13.95;5.75;;;13.90;46.40;;;;;;4856985;29;20049;-86
2022/05/01 03:00:22;;;;;;;12.82;5.50;;;13.90;46.40;;;;;;4838486;29;20037;-85
2022/05/01 03:02:48;;;;;;;15.13;6.20;;;13.90;46.40;;;;;;4839744;29;20069;-86
2022/05/01 03:05:15;;;;;;;15.85;6.07;;;13.90;46.40;;;;;;4835435;29;20052;-86
2022/05/01 03:07:42;;;;;;;10.18;5.25;;;13.90;46.50;;;;;;4848839;29;20038;-86
2022/05/01 03:10:10;;;;;;;12.38;5.53;;;13.90;46.40;;;;;;4850471;29;20030;-86
2022/05/01 03:12:39;;;;;;;13.02;5.68;;;13.90;46.30;;;;;;4867061;29;20061;-85
2022/05/01 03:15:07;;;;;;;7.80;5.15;;;13.90;46.30;;;;;;4876910;29;20038;-86
2022/05/01 03:23:03;;;;;;;13.13;5.88;;;14.00;46.40;;;;;;4849817;29;20053;-86
2022/05/01 03:25:29;;;;;;;14.90;5.90;;;14.00;46.40;;;;;;4852623;29;20053;-87
2022/05/01 03:27:55;;;;;;;10.25;5.60;;;14.00;46.30;;;;;;4848091;29;20050;-87
2022/05/01 03:30:22;;;;;;;9.82;5.78;;;14.00;46.30;;;;;;4846292;29;20530;-87
2022/05/01 03:32:49;;;;;;;10.75;5.50;;;14.00;46.50;;;;;;4864059;29;20122;-85
2022/05/01 03:35:17;;;;;;;13.05;6.43;;;14.00;46.50;;;;;;4850816;29;20078;-85
2022/05/01 03:37:43;;;;;;;11.27;5.95;;;14.00;46.40;;;;;;4863842;29;20069;-86
2022/05/01 03:40:12;;;;;;;11.45;5.75;;;14.00;46.40;;;;;;4833644;29;20033;-86
2022/05/01 03:42:38;;;;;;;11.30;5.78;;;14.00;46.40;;;;;;4850411;29;20045;-86
2022/05/01 03:45:05;;;;;;;12.02;6.05;;;14.00;46.50;;;;;;4852207;29;20347;-86
2022/05/01 03:47:32;;;;;;;12.85;5.78;;;14.00;46.50;;;;;;4851522;29;20042;-86
2022/05/01 03:49:59;;;;;;;9.68;5.70;;;14.00;46.60;;;;;;4861741;29;20037;-85
2022/05/01 03:52:25;;;;;;;10.18;5.55;;;14.10;46.50;;;;;;4876573;29;20417;-86
2022/05/01 03:54:51;;;;;;;10.07;5.50;;;14.10;46.60;;;;;;4836150;29;20527;-86
2022/05/01 03:57:17;;;;;;;15.38;5.75;;;14.10;46.40;;;;;;4835656;29;20073;-86
2022/05/01 03:59:42;;;;;;;10.38;5.55;;;14.10;46.30;;;;;;4836714;29;20038;-86
2022/05/01 04:02:09;;;;;;;9.57;5.00;;;14.10;46.30;;;;;;4850356;29;20121;-87
2022/05/01 04:04:35;;;;;;;12.25;5.35;;;14.10;46.20;;;;;;4834893;29;21369;-87
2022/05/01 04:07:01;;;;;;;12.43;5.55;;;14.20;46.10;;;;;;4833850;29;20053;-86
2022/05/01 04:09:28;;;;;;;9.95;5.13;;;14.30;46.10;;;;;;4848868;29;20045;-86
2022/05/01 04:11:54;;;;;;;11.77;4.70;;;14.50;46.00;;;;;;4848920;29;20073;-85
2022/05/01 04:14:20;;;;;;;8.38;4.20;;;14.70;45.80;;;;;;4849170;29;20037;-84
2022/05/01 04:16:47;;;;;;;32.47;6.03;;;14.90;45.70;;;;;;4837511;29;20144;-87
2022/05/01 04:19:13;;;;;;;10.02;4.53;;;15.10;45.60;;;;;;4847111;29;20068;-92
2022/05/01 04:21:39;;;;;;;9.35;4.45;;;15.30;45.50;;;;;;4848878;29;20037;-93
2022/05/01 04:24:06;;;;;;;8.05;3.88;;;15.50;45.50;;;;;;4833255;29;20053;-92
2022/05/01 04:26:32;;;;;;;9.75;4.97;;;15.70;45.40;;;;;;4850370;29;20527;-93
2022/05/01 04:31:42;;;;;;;8.00;4.35;;;16.00;45.10;;;;;;4852129;29;20046;-94
2022/05/01 04:34:09;;;;;;;7.20;4.35;;;16.30;45.00;;;;;;4852167;29;20026;-94
2022/05/01 04:36:35;;;;;;;7.72;4.43;;;16.40;44.80;;;;;;4853758;29;20037;-90
2022/05/01 04:39:01;;;;;;;10.50;4.13;;;16.60;44.80;;;;;;4851193;29;20038;-92
2022/05/01 04:41:27;;;;;;;10.07;4.32;;;16.70;44.70;;;;;;4854749;29;20109;-93
2022/05/01 04:43:53;;;;;;;6.30;3.60;;;16.90;44.70;;;;;;4838565;29;20088;-84
2022/05/01 04:46:19;;;;;;;6.05;3.75;;;17.00;44.60;;;;;;4850569;29;20025;-84
2022/05/01 04:48:45;;;;;;;7.70;3.20;;;17.20;44.50;;;;;;4836892;29;20061;-85
2022/05/01 04:51:11;;;;;;;4.55;3.53;;;17.30;44.40;;;;;;4842483;29;20038;-86
2022/05/01 04:53:37;;;;;;;9.25;3.35;;;17.40;44.40;;;;;;4885619;29;20053;-80
2022/05/01 04:59:07;;;;;;;5.43;2.85;;;17.70;44.40;;;;;;4874051;29;20041;-88
2022/05/01 05:01:36;;;;;;;6.53;2.92;;;17.90;44.40;;;;;;4859697;29;20049;-89
2022/05/01 05:04:03;;;;;;;5.00;2.67;;;18.00;44.30;;;;;;4860627;29;20268;-88
2022/05/01 05:06:30;;;;;;;6.65;2.85;;;18.10;44.30;;;;;;4853756;29;20045;-88
2022/05/01 05:11:55;;;;;;;6.40;3.40;;;18.40;44.20;;;;;;4931106;24;21086;-89
2022/05/01 05:14:20;;;;;;;6.18;2.50;;;18.60;44.00;;;;;;4822495;29;20425;-90
2022/05/01 05:16:47;;;;;;;4.18;2.30;;;18.60;43.90;;;;;;4814869;29;20039;-93
2022/05/01 05:19:13;;;;;;;4.15;2.35;;;18.80;43.90;;;;;;4837872;29;20042;-93
2022/05/01 05:27:31;;;;;;;4.25;2.33;;;19.20;43.70;;;;;;5444205;23;20472;-90
2022/05/01 05:29:58;;;;;;;3.50;1.98;;;19.30;43.60;;;;;;5142787;23;20059;-87
2022/05/01 05:32:26;;;;;;;6.35;2.38;;;19.50;43.60;;;;;;4852122;29;20060;-88
2022/05/01 05:34:55;;;;;;;3.83;2.13;;;19.60;43.50;;;;;;4832063;29;20526;-83
2022/05/01 05:37:24;;;;;;;2.70;1.88;;;19.70;43.40;;;;;;4843471;29;20053;-89
2022/05/01 05:39:56;;;;;;;3.55;2.28;;;19.80;44.00;;;;;;4807177;29;20042;-92
2022/05/01 05:42:25;;;;;;;2.35;1.80;;;19.90;43.40;;;;;;4837738;29;20034;-85
2022/05/01 05:44:51;;;;;;;3.20;1.70;;;20.00;43.30;;;;;;4829663;29;20106;-88
2022/05/01 05:47:17;;;;;;;3.28;1.95;;;20.10;43.20;;;;;;4822617;29;20045;-86
2022/05/01 05:49:43;;;;;;;4.03;1.80;;;20.20;43.10;;;;;;4837263;29;20442;-84
2022/05/01 05:52:09;;;;;;;3.33;1.90;;;20.30;43.00;;;;;;4836339;29;20072;-83
2022/05/01 05:54:35;;;;;;;3.53;1.83;;;20.40;42.90;;;;;;4806631;29;20486;-85
2022/05/01 05:57:01;;;;;;;5.93;1.58;;;20.50;40.50;;;;;;4838890;29;20041;-85
2022/05/01 05:59:27;;;;;;;4.95;1.80;;;20.60;39.40;;;;;;4861617;29;20054;-84
2022/05/01 06:01:53;;;;;;;7.80;1.90;;;20.80;39.50;;;;;;5044965;24;20081;-85
2022/05/01 06:04:19;;;;;;;6.68;1.70;;;20.90;38.80;;;;;;4880686;29;20036;-82
2022/05/01 06:06:45;;;;;;;4.13;1.40;;;21.00;37.10;;;;;;4905255;29;20071;-84
2022/05/01 06:09:11;;;;;;;5.43;1.48;;;21.20;37.70;;;;;;4875118;29;20068;-84
2022/05/01 06:11:37;;;;;;;6.20;1.33;;;21.30;37.90;;;;;;4873893;29;20568;-85
2022/05/01 06:14:04;;;;;;;5.13;1.27;;;21.30;36.70;;;;;;4864960;29;20053;-88
2022/05/01 06:16:31;;;;;;;4.20;1.00;;;21.40;36.40;;;;;;4867766;29;20040;-90
2022/05/01 06:18:59;;;;;;;4.38;1.15;;;21.50;36.20;;;;;;4858389;29;20037;-90
2022/05/01 06:21:26;;;;;;;2.67;1.30;;;21.50;35.60;;;;;;4841594;29;20124;-89
2022/05/01 06:23:52;;;;;;;4.25;0.88;;;21.70;35.00;;;;;;4853203;29;20042;-92
2022/05/01 06:26:18;;;;;;;1.42;0.70;;;21.70;34.40;;;;;;4858006;29;20060;-91
2022/05/01 06:28:44;;;;;;;1.00;0.80;;;21.80;33.90;;;;;;4858155;29;20029;-88
2022/05/01 06:31:10;;;;;;;1.15;1.00;;;21.90;33.70;;;;;;4871464;29;20508;-90
2022/05/01 06:33:39;;;;;;;3.70;0.90;;;21.90;33.10;;;;;;4864925;29;20056;-92
2022/05/01 06:36:05;;;;;;;6.78;1.50;;;22.00;32.80;;;;;;4833131;29;20049;-89
2022/05/01 06:38:31;;;;;;;1.58;1.05;;;22.00;33.40;;;;;;4829777;29;20047;-85
2022/05/01 06:40:57;;;;;;;2.40;0.80;;;22.00;34.00;;;;;;4854735;29;20535;-86
2022/05/01 06:43:24;;;;;;;0.88;0.80;;;22.00;33.30;;;;;;4847423;29;20033;-86
2022/05/01 06:45:49;;;;;;;2.78;1.10;;;22.00;33.40;;;;;;4872634;29;20037;-83
2022/05/01 06:48:15;;;;;;;1.58;1.10;;;22.00;32.90;;;;;;4868240;29;20128;-82
2022/05/01 06:50:44;;;;;;;2.50;1.02;;;22.00;32.70;;;;;;4869102;29;20157;-89
2022/05/01 06:53:10;;;;;;;1.90;1.00;;;22.00;33.40;;;;;;4855913;29;20049;-86
2022/05/01 06:55:36;;;;;;;2.03;1.20;;;22.10;33.30;;;;;;4868803;29;20033;-91
2022/05/01 06:58:02;;;;;;;5.38;1.25;;;22.20;32.90;;;;;;4871958;29;20032;-89
2022/05/01 07:00:28;;;;;;;3.47;1.05;;;22.20;33.50;;;;;;4857732;29;20513;-94
2022/05/01 07:02:55;;;;;;;1.60;1.10;;;22.30;34.50;;;;;;4831932;29;20048;-86
2022/05/01 07:05:21;;;;;;;1.48;1.38;;;22.40;35.70;;;;;;4857048;29;20129;-92
2022/05/01 07:10:46;;;;;;;4.43;1.30;;;22.50;35.20;;;;;;4841607;29;20044;-85
2022/05/01 07:13:15;;;;;;;3.00;0.90;;;22.60;35.20;;;;;;4840020;29;20107;-83
2022/05/01 07:15:43;;;;;;;3.03;1.38;;;22.60;35.30;;;;;;4837829;29;20517;-84
2022/05/01 07:18:09;;;;;;;3.75;1.20;;;22.60;35.40;;;;;;4863442;29;20501;-85
2022/05/01 07:20:35;;;;;;;4.45;1.35;;;22.70;35.40;;;;;;4845606;29;20041;-85
2022/05/01 07:23:02;;;;;;;3.88;1.10;;;22.70;35.50;;;;;;4867392;29;20060;-83
2022/05/01 07:25:29;;;;;;;3.83;1.20;;;22.80;35.70;;;;;;4842658;29;20064;-85
2022/05/01 07:27:55;;;;;;;3.78;1.33;;;22.80;35.50;;;;;;4860733;29;21888;-82
2022/05/01 07:30:21;;;;;;;6.70;1.55;;;22.80;36.10;;;;;;4857699;29;20174;-85
2022/05/01 07:32:47;;;;;;;3.22;1.60;;;22.80;36.50;;;;;;4861071;29;20049;-84
2022/05/01 07:35:13;;;;;;;6.15;1.48;;;22.80;36.50;;;;;;4833982;29;20042;-82
2022/05/01 07:37:39;;;;;;;3.05;1.75;;;22.70;36.70;;;;;;4853173;29;20038;-82
2022/05/01 07:40:05;;;;;;;2.88;1.20;;;22.70;36.80;;;;;;4838342;29;20381;-83
2022/05/01 07:42:31;;;;;;;4.05;1.80;;;22.60;36.60;;;;;;4853470;29;20069;-84
2022/05/01 07:44:57;;;;;;;4.10;1.85;;;22.50;36.70;;;;;;4852508;29;20068;-81
2022/05/01 07:47:23;;;;;;;6.43;1.50;;;22.50;36.90;;;;;;4844864;29;20443;-84
2022/05/01 07:49:55;;;;;;;4.10;1.25;;;22.40;37.10;;;;;;4838524;29;20038;-84
2022/05/01 07:52:21;;;;;;;6.95;1.67;;;22.40;36.90;;;;;;4855710;29;20543;-88
2022/05/01 07:54:47;;;;;;;4.45;1.60;;;22.30;35.70;;;;;;4837897;29;20124;-88
2022/05/01 07:57:14;;;;;;;4.43;1.60;;;22.20;34.20;;;;;;4823359;29;20699;-87
2022/05/01 07:59:50;;;;;;;;;;;;;;;;;;;;;
2022/05/01 08:02:20;;;;;;;1.90;1.40;;;21.90;33.30;;;;;;4856271;29;20068;-91
2022/05/01 08:04:47;;;;;;;3.80;1.45;;;21.90;32.60;;;;;;4857759;29;20029;-92
2022/05/01 08:07:13;;;;;;;7.40;1.70;;;21.70;32.50;;;;;;4855418;29;20041;-90
2022/05/01 08:09:39;;;;;;;2.63;1.40;;;21.70;32.50;;;;;;4856823;29;20393;-90
2022/05/01 08:12:06;;;;;;;1.77;1.52;;;21.50;32.80;;;;;;4840121;29;20044;-90
2022/05/01 08:14:32;;;;;;;3.55;1.58;;;21.40;32.70;;;;;;4863938;29;20046;-90
2022/05/01 08:16:59;;;;;;;1.15;1.00;;;21.30;32.60;;;;;;4868089;29;20034;-84
2022/05/01 08:22:13;;;;;;;2.58;1.10;;;21.10;33.00;;;;;;4825339;29;20041;-84
2022/05/01 08:24:38;;;;;;;1.48;1.15;;;21.10;33.50;;;;;;4791252;29;20035;-81
2022/05/01 08:27:05;;;;;;;3.17;1.30;;;21.00;33.10;;;;;;4817714;29;20049;-90
2022/05/01 08:29:33;;;;;;;3.17;1.30;;;20.90;32.90;;;;;;4818884;29;20038;-89
2022/05/01 08:32:00;;;;;;;5.95;1.52;;;20.80;32.50;;;;;;4822599;29;20057;-85
2022/05/01 08:34:26;;;;;;;4.65;1.30;;;20.70;32.60;;;;;;4824473;29;20034;-88
2022/05/01 08:36:52;;;;;;;4.00;1.73;;;20.60;32.60;;;;;;4819514;29;20129;-89
2022/05/01 08:39:18;;;;;;;2.15;1.42;;;20.40;32.50;;;;;;4832143;29;20273;-90
2022/05/01 08:41:48;;;;;;;4.22;1.80;;;20.30;32.60;;;;;;4835147;29;20506;-88
2022/05/01 08:44:16;;;;;;;5.65;1.63;;;20.20;32.60;;;;;;4817139;29;20041;-90
2022/05/01 08:47:00;;;;;;;3.90;1.60;;;20.10;32.70;;;;;;4832642;29;20030;-89
2022/05/01 08:49:28;;;;;;;2.25;1.58;;;20.00;32.80;;;;;;4814044;29;20026;-90
2022/05/01 08:51:54;;;;;;;2.05;1.20;;;20.00;32.90;;;;;;4817893;29;20065;-91
2022/05/01 08:54:23;;;;;;;4.28;1.60;;;19.90;33.20;;;;;;4797200;29;20166;-90
2022/05/01 08:56:49;;;;;;;1.83;1.50;;;19.90;33.30;;;;;;4834245;29;20041;-90
2022/05/01 08:59:16;;;;;;;4.07;1.75;;;19.90;33.30;;;;;;4817874;29;20046;-87
2022/05/01 09:01:45;;;;;;;4.63;1.85;;;19.80;33.20;;;;;;4831121;29;20038;-90
2022/05/01 09:04:14;;;;;;;3.30;1.45;;;19.80;33.30;;;;;;4832573;29;20125;-91
2022/05/01 09:06:43;;;;;;;2.60;1.70;;;19.70;33.40;;;;;;4815723;29;20510;-88
2022/05/01 09:09:11;;;;;;;3.47;1.70;;;19.70;33.40;;;;;;4815913;29;20102;-89
2022/05/01 09:14:24;;;;;;;4.63;1.30;;;19.70;33.50;;;;;;4800639;29;20046;-92
2022/05/01 09:17:12;;;;;;;4.68;1.35;;;19.70;33.40;;;;;;4818345;29;20030;-92
2022/05/01 09:19:39;;;;;;;4.05;1.67;;;19.60;33.40;;;;;;4800580;29;20463;-90
2022/05/01 09:22:05;;;;;;;3.50;1.77;;;19.60;33.20;;;;;;4833944;29;20027;-91
2022/05/01 09:24:32;;;;;;;3.88;1.52;;;19.50;33.00;;;;;;4818828;29;20530;-90
2022/05/01 09:26:59;;;;;;;6.95;2.22;;;19.50;33.00;;;;;;4825131;29;20073;-90
2022/05/01 09:29:32;;;;;;;5.60;1.50;;;19.40;33.20;;;;;;4841464;29;20065;-90
2022/05/01 09:32:03;;;;;;;5.43;1.70;;;19.40;33.40;;;;;;4820141;29;20065;-87
2022/05/01 09:34:35;;;;;;;3.50;1.50;;;19.40;33.30;;;;;;4823225;29;20049;-89
2022/05/01 09:37:17;;;;;;;2.30;1.40;;;19.40;34.20;;;;;;4810960;29;20074;-90
2022/05/01 09:39:48;;;;;;;2.88;1.25;;;19.40;35.00;;;;;;4803492;29;20100;-91
2022/05/01 09:42:17;;;;;;;2.85;1.70;;;19.50;35.30;;;;;;4818538;29;20049;-89
2022/05/01 09:44:43;;;;;;;4.05;1.48;;;19.40;35.00;;;;;;4833861;29;20042;-92
2022/05/01 09:47:09;;;;;;;2.92;1.65;;;19.40;34.40;;;;;;4818017;29;20070;-90
2022/05/01 09:49:49;;;;;;;3.63;2.53;;;19.40;34.00;;;;;;4833484;29;20050;-88
2022/05/01 09:52:15;;;;;;;3.50;1.70;;;19.40;33.70;;;;;;4820137;29;20049;-86
2022/05/01 09:55:00;;;;;;;4.35;1.95;;;19.40;33.80;;;;;;4817731;29;20039;-90
2022/05/01 09:57:26;;;;;;;2.47;2.13;;;19.30;34.10;;;;;;4819732;29;20049;-89
2022/05/01 09:59:52;;;;;;;2.45;1.80;;;19.30;33.70;;;;;;4819102;29;20034;-88
2022/05/01 10:02:28;;;;;;;2.60;1.75;;;19.30;33.80;;;;;;4833339;29;20046;-88
2022/05/01 10:05:03;;;;;;;2.53;1.85;;;19.20;33.40;;;;;;4819343;29;20050;-89
2022/05/01 10:07:37;;;;;;;3.80;2.10;;;19.20;33.50;;;;;;4833435;29;20125;-90
2022/05/01 10:10:10;;;;;;;3.58;1.65;;;19.10;33.60;;;;;;4817183;29;20082;-90
2022/05/01 10:12:43;;;;;;;3.60;1.50;;;19.10;33.60;;;;;;4813839;29;20039;-86
2022/05/01 10:15:10;;;;;;;5.25;1.88;;;19.10;33.50;;;;;;4817733;29;20091;-90
2022/05/01 10:17:38;;;;;;;2.50;1.73;;;19.10;33.50;;;;;;4803665;29;20035;-85
2022/05/01 10:20:04;;;;;;;4.40;2.08;;;19.10;33.60;;;;;;4833085;29;20514;-89
2022/05/01 10:22:35;;;;;;;4.35;1.88;;;19.10;33.90;;;;;;4804348;29;20051;-92
2022/05/01 10:25:03;;;;;;;4.05;2.08;;;19.10;33.90;;;;;;4835390;29;20119;-90
2022/05/01 10:27:46;;;;;;;3.33;1.90;;;19.10;33.90;;;;;;4840820;29;20110;-90
2022/05/01 10:33:07;;;;;;;2.92;2.00;;;19.10;33.60;;;;;;4826262;29;20046;-81
2022/05/01 10:36:03;;;;;;;3.97;2.08;;;19.00;33.40;;;;;;4799798;29;20383;-89
2022/05/01 10:38:53;;;;;;;4.50;1.90;;;19.00;33.70;;;;;;4841144;29;20545;-89
2022/05/01 10:41:19;;;;;;;4.53;2.20;;;19.00;33.80;;;;;;4828344;29;20038;-89
2022/05/01 10:43:59;;;;;;;3.05;1.67;;;18.90;33.50;;;;;;4803614;29;20038;-89
2022/05/01 10:46:24;;;;;;;2.92;1.83;;;18.90;33.70;;;;;;4820732;29;20046;-87
2022/05/01 10:48:51;;;;;;;8.85;2.20;;;18.90;33.80;;;;;;4820668;29;20081;-89
2022/05/01 10:51:34;;;;;;;4.68;2.25;;;18.90;33.60;;;;;;4801350;29;20085;-89
2022/05/01 10:54:15;;;;;;;4.55;2.30;;;18.90;33.70;;;;;;4816766;29;20417;-88
2022/05/01 10:56:43;;;;;;;3.92;2.40;;;18.90;33.70;;;;;;4801154;29;20046;-88
2022/05/01 10:59:39;;;;;;;3.10;2.80;;;18.90;33.70;;;;;;4818024;29;20076;-88
2022/05/01 11:02:16;;;;;;;4.00;2.28;;;18.90;33.80;;;;;;4832497;29;20039;-86
2022/05/01 11:04:42;;;;;;;3.42;2.25;;;18.80;34.20;;;;;;4811472;29;20441;-86
2022/05/01 11:07:13;;;;;;;4.72;2.33;;;18.80;34.20;;;;;;4832934;29;20079;-88
2022/05/01 11:09:47;;;;;;;6.20;2.67;;;18.80;34.30;;;;;;4816267;29;20049;-86
2022/05/01 11:12:16;;;;;;;4.35;2.30;;;18.80;34.20;;;;;;4817941;29;20134;-86
2022/05/01 11:14:49;;;;;;;3.55;2.47;;;18.90;34.50;;;;;;4817636;29;20041;-86
2022/05/01 11:17:29;;;;;;;4.70;2.50;;;18.80;34.30;;;;;;4818303;29;20065;-86
2022/05/01 11:20:10;;;;;;;11.38;2.42;;;18.80;34.30;;;;;;4818077;29;20073;-80
2022/05/01 11:22:36;;;;;;;4.45;2.28;;;18.80;34.40;;;;;;4817430;29;20463;-82
2022/05/01 11:25:03;;;;;;;6.20;2.35;;;18.80;34.20;;;;;;4816661;29;20038;-85
2022/05/01 11:27:50;;;;;;;2.95;2.25;;;18.80;34.00;;;;;;4832047;29;20050;-82
2022/05/01 11:30:29;;;;;;;4.28;2.40;;;18.70;34.10;;;;;;4816528;29;20099;-84
2022/05/01 11:33:09;;;;;;;4.80;2.15;;;18.70;34.00;;;;;;4825673;29;20054;-85
2022/05/01 11:35:56;;;;;;;5.65;2.47;;;18.70;34.10;;;;;;4845787;29;20065;-84
2022/05/01 11:38:38;;;;;;;3.28;2.42;;;18.70;34.70;;;;;;4829721;29;20042;-85
2022/05/01 11:41:06;;;;;;;4.22;2.30;;;18.70;34.40;;;;;;4823184;29;20038;-90
2022/05/01 11:43:34;;;;;;;3.63;2.50;;;18.70;34.10;;;;;;4824028;29;20045;-83
2022/05/01 11:46:02;;;;;;;17.45;3.00;;;18.70;34.30;;;;;;4787077;29;20097;-79
